sensor_id;sensor_type;location;lat;lon;timestamp;temperature;humidity
3406;DHT22;10008;48.682;9.016;2022-07-23T00:00:15;23.00;96.80
3406;DHT22;10008;48.682;9.016;2022-07-23T00:02:41;22.90;96.70
3406;DHT22;10008;48.682;9.016;2022-07-23T00:05:07;22.90;96.80
3406;DHT22;10008;48.682;9.016;2022-07-23T00:07:33;22.70;96.80
3406;DHT22;10008;48.682;9.016;2022-07-23T00:10:00;22.70;96.80
3406;DHT22;10008;48.682;9.016;2022-07-23T00:12:26;22.70;97.30
3406;DHT22;10008;48.682;9.016;2022-07-23T00:14:52;22.60;97.40
3406;DHT22;10008;48.682;9.016;2022-07-23T00:17:18;22.50;97.60
3406;DHT22;10008;48.682;9.016;2022-07-23T00:19:44;22.40;97.60
3406;DHT22;10008;48.682;9.016;2022-07-23T00:22:10;22.40;98.10
3406;DHT22;10008;48.682;9.016;2022-07-23T00:24:35;22.40;98.40
3406;DHT22;10008;48.682;9.016;2022-07-23T00:27:01;22.30;98.60
3406;DHT22;10008;48.682;9.016;2022-07-23T00:29:27;22.30;99.70
3406;DHT22;10008;48.682;9.016;2022-07-23T00:31:52;22.20;99.90
3406;DHT22;10008;48.682;9.016;2022-07-23T00:34:18;22.10;99.90
3406;DHT22;10008;48.682;9.016;2022-07-23T00:36:44;21.90;99.90
3406;DHT22;10008;48.682;9.016;2022-07-23T00:39:10;21.80;99.90
3406;DHT22;10008;48.682;9.016;2022-07-23T00:41:35;21.70;99.90
3406;DHT22;10008;48.682;9.016;2022-07-23T00:44:21;21.60;99.90
3406;DHT22;10008;48.682;9.016;2022-07-23T00:46:50;21.50;99.90
3406;DHT22;10008;48.682;9.016;2022-07-23T00:49:19;21.50;99.90
3406;DHT22;10008;48.682;9.016;2022-07-23T00:51:46;21.60;99.90
3406;DHT22;10008;48.682;9.016;2022-07-23T00:54:12;21.60;99.90
3406;DHT22;10008;48.682;9.016;2022-07-23T00:56:39;21.60;99.90
3406;DHT22;10008;48.682;9.016;2022-07-23T00:59:06;21.60;99.90
3406;DHT22;10008;48.682;9.016;2022-07-23T01:01:32;21.60;99.90
3406;DHT22;10008;48.682;9.016;2022-07-23T01:03:58;21.60;99.90
3406;DHT22;10008;48.682;9.016;2022-07-23T01:06:24;21.60;99.90
3406;DHT22;10008;48.682;9.016;2022-07-23T01:08:50;21.70;99.90
3406;DHT22;10008;48.682;9.016;2022-07-23T01:11:17;21.70;99.90
3406;DHT22;10008;48.682;9.016;2022-07-23T01:13:44;21.70;99.90
3406;DHT22;10008;48.682;9.016;2022-07-23T01:16:09;21.70;99.90
3406;DHT22;10008;48.682;9.016;2022-07-23T01:18:35;21.70;99.90
3406;DHT22;10008;48.682;9.016;2022-07-23T01:21:01;21.70;99.90
3406;DHT22;10008;48.682;9.016;2022-07-23T01:23:27;21.80;99.90
3406;DHT22;10008;48.682;9.016;2022-07-23T01:25:56;21.70;99.90
3406;DHT22;10008;48.682;9.016;2022-07-23T01:28:23;21.70;99.90
3406;DHT22;10008;48.682;9.016;2022-07-23T01:30:50;21.70;99.90
3406;DHT22;10008;48.682;9.016;2022-07-23T01:33:16;21.70;99.90
3406;DHT22;10008;48.682;9.016;2022-07-23T01:35:42;21.70;99.90
3406;DHT22;10008;48.682;9.016;2022-07-23T01:38:09;21.70;99.90
3406;DHT22;10008;48.682;9.016;2022-07-23T01:40:37;21.60;99.90
3406;DHT22;10008;48.682;9.016;2022-07-23T01:43:03;21.70;99.90
3406;DHT22;10008;48.682;9.016;2022-07-23T01:45:31;21.70;99.90
3406;DHT22;10008;48.682;9.016;2022-07-23T01:47:57;21.80;99.90
3406;DHT22;10008;48.682;9.016;2022-07-23T01:50:23;21.70;99.90
3406;DHT22;10008;48.682;9.016;2022-07-23T01:53:15;21.70;99.90
3406;DHT22;10008;48.682;9.016;2022-07-23T01:55:42;21.60;99.90
3406;DHT22;10008;48.682;9.016;2022-07-23T01:58:08;21.50;99.90
3406;DHT22;10008;48.682;9.016;2022-07-23T02:00:35;21.50;99.90
3406;DHT22;10008;48.682;9.016;2022-07-23T02:03:00;21.50;99.90
3406;DHT22;10008;48.682;9.016;2022-07-23T02:05:28;21.40;99.90
3406;DHT22;10008;48.682;9.016;2022-07-23T02:07:54;21.40;99.90
3406;DHT22;10008;48.682;9.016;2022-07-23T02:10:21;21.40;99.90
3406;DHT22;10008;48.682;9.016;2022-07-23T02:12:47;21.40;99.90
3406;DHT22;10008;48.682;9.016;2022-07-23T02:15:13;21.40;99.90
3406;DHT22;10008;48.682;9.016;2022-07-23T02:17:39;21.30;99.90
3406;DHT22;10008;48.682;9.016;2022-07-23T02:20:06;21.10;99.90
3406;DHT22;10008;48.682;9.016;2022-07-23T02:22:32;21.10;99.90
3406;DHT22;10008;48.682;9.016;2022-07-23T02:24:58;21.10;99.90
3406;DHT22;10008;48.682;9.016;2022-07-23T02:27:24;21.10;99.90
3406;DHT22;10008;48.682;9.016;2022-07-23T02:29:50;21.00;99.90
3406;DHT22;10008;48.682;9.016;2022-07-23T02:32:16;20.90;99.90
3406;DHT22;10008;48.682;9.016;2022-07-23T02:34:43;20.90;99.90
3406;DHT22;10008;48.682;9.016;2022-07-23T02:37:09;20.90;99.90
3406;DHT22;10008;48.682;9.016;2022-07-23T02:39:35;20.80;99.90
3406;DHT22;10008;48.682;9.016;2022-07-23T02:42:02;20.90;99.90
3406;DHT22;10008;48.682;9.016;2022-07-23T02:44:29;20.90;99.90
3406;DHT22;10008;48.682;9.016;2022-07-23T02:46:55;21.00;99.90
3406;DHT22;10008;48.682;9.016;2022-07-23T02:49:21;21.00;99.90
3406;DHT22;10008;48.682;9.016;2022-07-23T02:51:49;21.00;99.90
3406;DHT22;10008;48.682;9.016;2022-07-23T02:54:15;21.00;99.90
3406;DHT22;10008;48.682;9.016;2022-07-23T02:56:41;20.90;99.90
3406;DHT22;10008;48.682;9.016;2022-07-23T02:59:07;20.90;99.90
3406;DHT22;10008;48.682;9.016;2022-07-23T03:01:34;20.90;99.90
3406;DHT22;10008;48.682;9.016;2022-07-23T03:04:00;20.90;99.90
3406;DHT22;10008;48.682;9.016;2022-07-23T03:06:25;20.90;99.90
3406;DHT22;10008;48.682;9.016;2022-07-23T03:08:51;20.80;99.90
3406;DHT22;10008;48.682;9.016;2022-07-23T03:11:17;20.80;99.90
3406;DHT22;10008;48.682;9.016;2022-07-23T03:13:43;20.70;99.90
3406;DHT22;10008;48.682;9.016;2022-07-23T03:16:09;20.70;99.90
3406;DHT22;10008;48.682;9.016;2022-07-23T03:18:36;20.70;99.90
3406;DHT22;10008;48.682;9.016;2022-07-23T03:21:03;20.70;99.90
3406;DHT22;10008;48.682;9.016;2022-07-23T03:23:29;20.70;99.90
3406;DHT22;10008;48.682;9.016;2022-07-23T03:25:54;20.80;99.90
3406;DHT22;10008;48.682;9.016;2022-07-23T03:28:21;20.90;99.90
3406;DHT22;10008;48.682;9.016;2022-07-23T03:30:47;21.00;99.90
3406;DHT22;10008;48.682;9.016;2022-07-23T03:33:17;21.00;99.90
3406;DHT22;10008;48.682;9.016;2022-07-23T03:35:45;21.10;99.90
3406;DHT22;10008;48.682;9.016;2022-07-23T03:38:18;21.00;99.90
3406;DHT22;10008;48.682;9.016;2022-07-23T03:40:44;21.00;99.90
3406;DHT22;10008;48.682;9.016;2022-07-23T03:43:09;20.90;99.90
3406;DHT22;10008;48.682;9.016;2022-07-23T03:45:35;20.70;99.90
3406;DHT22;10008;48.682;9.016;2022-07-23T03:48:01;20.60;99.90
3406;DHT22;10008;48.682;9.016;2022-07-23T03:50:28;20.50;99.90
3406;DHT22;10008;48.682;9.016;2022-07-23T03:52:54;20.60;99.90
3406;DHT22;10008;48.682;9.016;2022-07-23T03:55:20;20.80;99.90
3406;DHT22;10008;48.682;9.016;2022-07-23T03:57:46;20.80;99.90
3406;DHT22;10008;48.682;9.016;2022-07-23T04:00:12;20.80;99.90
3406;DHT22;10008;48.682;9.016;2022-07-23T04:02:42;20.90;99.90
3406;DHT22;10008;48.682;9.016;2022-07-23T04:05:10;20.80;99.90
3406;DHT22;10008;48.682;9.016;2022-07-23T04:07:36;20.80;99.90
3406;DHT22;10008;48.682;9.016;2022-07-23T04:10:02;20.70;99.90
3406;DHT22;10008;48.682;9.016;2022-07-23T04:12:28;20.60;99.90
3406;DHT22;10008;48.682;9.016;2022-07-23T04:14:54;20.50;99.90
3406;DHT22;10008;48.682;9.016;2022-07-23T04:17:20;20.40;99.90
3406;DHT22;10008;48.682;9.016;2022-07-23T04:19:46;20.40;99.90
3406;DHT22;10008;48.682;9.016;2022-07-23T04:22:16;20.40;99.90
3406;DHT22;10008;48.682;9.016;2022-07-23T04:24:41;20.30;99.90
3406;DHT22;10008;48.682;9.016;2022-07-23T04:27:08;20.40;99.90
3406;DHT22;10008;48.682;9.016;2022-07-23T04:29:34;20.40;99.90
3406;DHT22;10008;48.682;9.016;2022-07-23T04:32:00;20.40;99.90
3406;DHT22;10008;48.682;9.016;2022-07-23T04:34:26;20.30;99.90
3406;DHT22;10008;48.682;9.016;2022-07-23T04:36:59;20.40;99.90
3406;DHT22;10008;48.682;9.016;2022-07-23T04:39:26;20.50;99.90
3406;DHT22;10008;48.682;9.016;2022-07-23T04:41:52;20.50;99.90
3406;DHT22;10008;48.682;9.016;2022-07-23T04:44:18;20.50;99.90
3406;DHT22;10008;48.682;9.016;2022-07-23T04:46:44;20.50;99.90
3406;DHT22;10008;48.682;9.016;2022-07-23T04:49:10;20.60;99.90
3406;DHT22;10008;48.682;9.016;2022-07-23T04:51:36;20.60;99.90
3406;DHT22;10008;48.682;9.016;2022-07-23T04:54:01;20.60;99.90
3406;DHT22;10008;48.682;9.016;2022-07-23T04:56:27;20.60;99.90
3406;DHT22;10008;48.682;9.016;2022-07-23T04:58:54;20.80;99.90
3406;DHT22;10008;48.682;9.016;2022-07-23T05:01:20;21.00;99.90
3406;DHT22;10008;48.682;9.016;2022-07-23T05:03:46;21.10;99.90
3406;DHT22;10008;48.682;9.016;2022-07-23T05:06:14;21.00;99.90
3406;DHT22;10008;48.682;9.016;2022-07-23T05:08:40;21.00;99.90
3406;DHT22;10008;48.682;9.016;2022-07-23T05:11:08;21.00;99.90
3406;DHT22;10008;48.682;9.016;2022-07-23T05:13:34;21.00;99.90
3406;DHT22;10008;48.682;9.016;2022-07-23T05:16:00;21.00;99.90
3406;DHT22;10008;48.682;9.016;2022-07-23T05:18:27;21.10;99.90
3406;DHT22;10008;48.682;9.016;2022-07-23T05:20:53;21.20;99.90
3406;DHT22;10008;48.682;9.016;2022-07-23T05:23:21;21.30;99.90
3406;DHT22;10008;48.682;9.016;2022-07-23T05:25:48;21.40;99.90
3406;DHT22;10008;48.682;9.016;2022-07-23T05:28:16;21.60;99.90
3406;DHT22;10008;48.682;9.016;2022-07-23T05:30:42;21.80;99.90
3406;DHT22;10008;48.682;9.016;2022-07-23T05:33:11;21.80;99.90
3406;DHT22;10008;48.682;9.016;2022-07-23T05:35:38;22.00;99.90
3406;DHT22;10008;48.682;9.016;2022-07-23T05:38:26;22.10;99.90
3406;DHT22;10008;48.682;9.016;2022-07-23T05:40:53;22.20;99.90
3406;DHT22;10008;48.682;9.016;2022-07-23T05:43:20;22.40;99.90
3406;DHT22;10008;48.682;9.016;2022-07-23T05:45:45;22.40;99.90
3406;DHT22;10008;48.682;9.016;2022-07-23T05:48:14;22.40;99.90
3406;DHT22;10008;48.682;9.016;2022-07-23T05:50:50;22.20;99.90
3406;DHT22;10008;48.682;9.016;2022-07-23T05:53:35;22.10;99.90
3406;DHT22;10008;48.682;9.016;2022-07-23T05:56:05;22.10;99.90
3406;DHT22;10008;48.682;9.016;2022-07-23T05:58:31;22.10;99.90
3406;DHT22;10008;48.682;9.016;2022-07-23T06:00:57;22.20;99.90
3406;DHT22;10008;48.682;9.016;2022-07-23T06:03:23;22.30;99.90
3406;DHT22;10008;48.682;9.016;2022-07-23T06:05:49;22.40;99.90
3406;DHT22;10008;48.682;9.016;2022-07-23T06:08:16;22.60;99.90
3406;DHT22;10008;48.682;9.016;2022-07-23T06:10:41;22.80;99.90
3406;DHT22;10008;48.682;9.016;2022-07-23T06:13:08;23.40;99.90
3406;DHT22;10008;48.682;9.016;2022-07-23T06:15:34;24.10;99.90
3406;DHT22;10008;48.682;9.016;2022-07-23T06:18:00;24.50;99.90
3406;DHT22;10008;48.682;9.016;2022-07-23T06:20:26;24.90;99.90
3406;DHT22;10008;48.682;9.016;2022-07-23T06:22:52;25.80;99.90
3406;DHT22;10008;48.682;9.016;2022-07-23T06:25:17;26.50;99.70
3406;DHT22;10008;48.682;9.016;2022-07-23T06:27:46;26.90;99.00
3406;DHT22;10008;48.682;9.016;2022-07-23T06:30:13;26.90;98.20
3406;DHT22;10008;48.682;9.016;2022-07-23T06:32:41;26.20;97.30
3406;DHT22;10008;48.682;9.016;2022-07-23T06:35:07;25.70;99.30
3406;DHT22;10008;48.682;9.016;2022-07-23T06:37:33;25.30;98.50
3406;DHT22;10008;48.682;9.016;2022-07-23T06:40:00;25.00;99.00
3406;DHT22;10008;48.682;9.016;2022-07-23T06:42:26;25.00;99.40
3406;DHT22;10008;48.682;9.016;2022-07-23T06:44:57;24.80;99.70
3406;DHT22;10008;48.682;9.016;2022-07-23T06:47:23;24.30;99.90
3406;DHT22;10008;48.682;9.016;2022-07-23T06:49:48;24.00;99.90
3406;DHT22;10008;48.682;9.016;2022-07-23T06:52:14;23.80;99.90
3406;DHT22;10008;48.682;9.016;2022-07-23T06:54:40;23.60;99.90
3406;DHT22;10008;48.682;9.016;2022-07-23T06:57:06;23.40;99.90
3406;DHT22;10008;48.682;9.016;2022-07-23T06:59:32;23.30;99.90
3406;DHT22;10008;48.682;9.016;2022-07-23T07:01:58;23.50;99.90
3406;DHT22;10008;48.682;9.016;2022-07-23T07:04:24;23.50;99.90
3406;DHT22;10008;48.682;9.016;2022-07-23T07:06:50;23.30;99.90
3406;DHT22;10008;48.682;9.016;2022-07-23T07:09:16;23.10;99.90
3406;DHT22;10008;48.682;9.016;2022-07-23T07:11:42;22.90;99.90
3406;DHT22;10008;48.682;9.016;2022-07-23T07:14:07;22.80;99.90
3406;DHT22;10008;48.682;9.016;2022-07-23T07:16:33;22.90;99.90
3406;DHT22;10008;48.682;9.016;2022-07-23T07:18:59;23.40;99.90
3406;DHT22;10008;48.682;9.016;2022-07-23T07:21:25;24.30;99.90
3406;DHT22;10008;48.682;9.016;2022-07-23T07:23:50;25.20;99.20
3406;DHT22;10008;48.682;9.016;2022-07-23T07:26:16;25.50;97.70
3406;DHT22;10008;48.682;9.016;2022-07-23T07:28:42;26.10;96.50
3406;DHT22;10008;48.682;9.016;2022-07-23T07:31:08;26.60;95.60
3406;DHT22;10008;48.682;9.016;2022-07-23T07:33:33;26.10;94.70
3406;DHT22;10008;48.682;9.016;2022-07-23T07:35:59;26.40;95.40
3406;DHT22;10008;48.682;9.016;2022-07-23T07:38:26;26.60;94.80
3406;DHT22;10008;48.682;9.016;2022-07-23T07:40:51;27.00;94.40
3406;DHT22;10008;48.682;9.016;2022-07-23T07:43:17;27.60;93.00
3406;DHT22;10008;48.682;9.016;2022-07-23T07:45:43;27.50;92.30
3406;DHT22;10008;48.682;9.016;2022-07-23T07:48:09;27.70;92.70
3406;DHT22;10008;48.682;9.016;2022-07-23T07:50:34;28.10;92.00
3406;DHT22;10008;48.682;9.016;2022-07-23T07:53:00;28.00;91.00
3406;DHT22;10008;48.682;9.016;2022-07-23T07:55:26;27.50;91.00
3406;DHT22;10008;48.682;9.016;2022-07-23T07:57:52;27.40;91.00
3406;DHT22;10008;48.682;9.016;2022-07-23T08:00:18;26.60;92.10
3406;DHT22;10008;48.682;9.016;2022-07-23T08:02:46;26.90;92.80
3406;DHT22;10008;48.682;9.016;2022-07-23T08:05:13;26.70;92.50
3406;DHT22;10008;48.682;9.016;2022-07-23T08:07:40;26.60;94.00
3406;DHT22;10008;48.682;9.016;2022-07-23T08:10:07;27.00;93.10
3406;DHT22;10008;48.682;9.016;2022-07-23T08:15:07;26.10;93.10
3406;DHT22;10008;48.682;9.016;2022-07-23T08:17:33;25.90;93.50
3406;DHT22;10008;48.682;9.016;2022-07-23T08:19:58;26.40;92.80
3406;DHT22;10008;48.682;9.016;2022-07-23T08:22:24;26.70;92.20
3406;DHT22;10008;48.682;9.016;2022-07-23T08:24:50;27.10;90.50
3406;DHT22;10008;48.682;9.016;2022-07-23T08:27:16;27.30;90.30
3406;DHT22;10008;48.682;9.016;2022-07-23T08:29:41;26.90;90.30
3406;DHT22;10008;48.682;9.016;2022-07-23T08:32:07;26.90;90.40
3406;DHT22;10008;48.682;9.016;2022-07-23T08:34:33;27.00;89.50
3406;DHT22;10008;48.682;9.016;2022-07-23T08:36:58;26.80;90.40
3406;DHT22;10008;48.682;9.016;2022-07-23T08:39:24;26.90;90.40
3406;DHT22;10008;48.682;9.016;2022-07-23T08:41:50;27.30;90.00
3406;DHT22;10008;48.682;9.016;2022-07-23T08:44:16;27.00;90.70
3406;DHT22;10008;48.682;9.016;2022-07-23T08:46:43;27.10;89.90
3406;DHT22;10008;48.682;9.016;2022-07-23T08:49:10;27.30;88.30
3406;DHT22;10008;48.682;9.016;2022-07-23T08:51:35;27.60;87.80
3406;DHT22;10008;48.682;9.016;2022-07-23T08:54:01;27.50;88.50
3406;DHT22;10008;48.682;9.016;2022-07-23T08:56:27;27.60;89.10
3406;DHT22;10008;48.682;9.016;2022-07-23T08:58:54;27.30;89.30
3406;DHT22;10008;48.682;9.016;2022-07-23T09:01:20;26.70;91.50
3406;DHT22;10008;48.682;9.016;2022-07-23T09:03:46;26.90;90.70
3406;DHT22;10008;48.682;9.016;2022-07-23T09:06:11;26.90;89.70
3406;DHT22;10008;48.682;9.016;2022-07-23T09:08:41;27.30;89.10
3406;DHT22;10008;48.682;9.016;2022-07-23T09:11:09;27.70;90.40
3406;DHT22;10008;48.682;9.016;2022-07-23T09:13:49;27.90;88.30
3406;DHT22;10008;48.682;9.016;2022-07-23T09:16:17;28.20;89.80
3406;DHT22;10008;48.682;9.016;2022-07-23T09:19:02;28.30;86.60
3406;DHT22;10008;48.682;9.016;2022-07-23T09:21:33;28.30;86.00
3406;DHT22;10008;48.682;9.016;2022-07-23T09:24:19;28.40;87.10
3406;DHT22;10008;48.682;9.016;2022-07-23T09:26:47;28.50;84.20
3406;DHT22;10008;48.682;9.016;2022-07-23T09:31:51;27.70;88.90
3406;DHT22;10008;48.682;9.016;2022-07-23T09:36:43;28.90;85.30
3406;DHT22;10008;48.682;9.016;2022-07-23T09:39:11;29.20;83.70
3406;DHT22;10008;48.682;9.016;2022-07-23T09:41:43;29.40;83.00
3406;DHT22;10008;48.682;9.016;2022-07-23T09:44:19;29.50;85.00
3406;DHT22;10008;48.682;9.016;2022-07-23T09:46:47;29.60;84.30
3406;DHT22;10008;48.682;9.016;2022-07-23T09:51:57;29.20;83.80
3406;DHT22;10008;48.682;9.016;2022-07-23T09:54:34;29.70;85.50
3406;DHT22;10008;48.682;9.016;2022-07-23T09:59:35;29.40;83.50
3406;DHT22;10008;48.682;9.016;2022-07-23T10:02:02;29.20;83.10
3406;DHT22;10008;48.682;9.016;2022-07-23T10:04:36;29.50;85.60
3406;DHT22;10008;48.682;9.016;2022-07-23T10:07:14;29.50;82.60
3406;DHT22;10008;48.682;9.016;2022-07-23T10:10:18;29.40;81.30
3406;DHT22;10008;48.682;9.016;2022-07-23T10:12:44;29.90;81.20
3406;DHT22;10008;48.682;9.016;2022-07-23T10:15:14;29.90;80.80
3406;DHT22;10008;48.682;9.016;2022-07-23T10:17:40;30.30;78.40
3406;DHT22;10008;48.682;9.016;2022-07-23T10:20:06;30.60;78.90
3406;DHT22;10008;48.682;9.016;2022-07-23T10:22:44;30.80;77.50
3406;DHT22;10008;48.682;9.016;2022-07-23T10:36:20;29.40;77.50
3406;DHT22;10008;48.682;9.016;2022-07-23T10:38:58;29.30;80.30
3406;DHT22;10008;48.682;9.016;2022-07-23T10:41:34;29.40;77.60
3406;DHT22;10008;48.682;9.016;2022-07-23T10:44:20;29.40;78.00
3406;DHT22;10008;48.682;9.016;2022-07-23T10:47:01;29.30;77.80
3406;DHT22;10008;48.682;9.016;2022-07-23T10:49:36;29.10;77.40
3406;DHT22;10008;48.682;9.016;2022-07-23T10:54:50;29.30;77.60
3406;DHT22;10008;48.682;9.016;2022-07-23T10:57:18;29.20;76.50
3406;DHT22;10008;48.682;9.016;2022-07-23T11:02:39;29.70;75.90
3406;DHT22;10008;48.682;9.016;2022-07-23T11:05:07;30.10;73.40
3406;DHT22;10008;48.682;9.016;2022-07-23T11:07:35;30.20;72.90
3406;DHT22;10008;48.682;9.016;2022-07-23T11:10:01;30.20;73.70
3406;DHT22;10008;48.682;9.016;2022-07-23T11:17:28;30.10;71.50
3406;DHT22;10008;48.682;9.016;2022-07-23T11:25:14;30.40;70.70
3406;DHT22;10008;48.682;9.016;2022-07-23T11:27:54;30.40;71.00
3406;DHT22;10008;48.682;9.016;2022-07-23T11:32:52;29.80;71.90
3406;DHT22;10008;48.682;9.016;2022-07-23T11:35:19;29.70;72.90
3406;DHT22;10008;48.682;9.016;2022-07-23T11:37:46;29.50;74.50
3406;DHT22;10008;48.682;9.016;2022-07-23T11:40:15;29.20;73.20
3406;DHT22;10008;48.682;9.016;2022-07-23T11:42:56;29.20;76.70
3406;DHT22;10008;48.682;9.016;2022-07-23T11:45:24;29.40;74.90
3406;DHT22;10008;48.682;9.016;2022-07-23T11:47:50;29.50;74.80
3406;DHT22;10008;48.682;9.016;2022-07-23T11:50:16;29.50;74.40
3406;DHT22;10008;48.682;9.016;2022-07-23T11:52:42;29.40;74.50
3406;DHT22;10008;48.682;9.016;2022-07-23T11:55:10;29.30;73.60
3406;DHT22;10008;48.682;9.016;2022-07-23T11:57:38;29.20;74.20
3406;DHT22;10008;48.682;9.016;2022-07-23T12:00:15;29.20;76.20
3406;DHT22;10008;48.682;9.016;2022-07-23T12:02:47;29.20;72.90
3406;DHT22;10008;48.682;9.016;2022-07-23T12:05:15;29.30;72.40
3406;DHT22;10008;48.682;9.016;2022-07-23T12:07:43;29.50;72.30
3406;DHT22;10008;48.682;9.016;2022-07-23T12:10:30;29.60;72.50
3406;DHT22;10008;48.682;9.016;2022-07-23T12:13:00;29.20;74.30
3406;DHT22;10008;48.682;9.016;2022-07-23T12:18:01;28.90;74.40
3406;DHT22;10008;48.682;9.016;2022-07-23T12:20:31;29.20;74.10
3406;DHT22;10008;48.682;9.016;2022-07-23T12:22:59;29.40;71.70
3406;DHT22;10008;48.682;9.016;2022-07-23T12:25:28;29.60;73.00
3406;DHT22;10008;48.682;9.016;2022-07-23T12:28:12;29.20;71.80
3406;DHT22;10008;48.682;9.016;2022-07-23T12:30:41;29.20;72.10
3406;DHT22;10008;48.682;9.016;2022-07-23T12:33:09;29.30;73.80
3406;DHT22;10008;48.682;9.016;2022-07-23T12:35:43;29.70;72.90
3406;DHT22;10008;48.682;9.016;2022-07-23T12:38:14;29.80;71.50
3406;DHT22;10008;48.682;9.016;2022-07-23T12:45:53;29.90;72.80
3406;DHT22;10008;48.682;9.016;2022-07-23T12:48:31;29.50;73.90
3406;DHT22;10008;48.682;9.016;2022-07-23T12:51:07;29.40;73.90
3406;DHT22;10008;48.682;9.016;2022-07-23T12:56:06;28.90;75.50
3406;DHT22;10008;48.682;9.016;2022-07-23T13:01:43;28.80;77.30
3406;DHT22;10008;48.682;9.016;2022-07-23T13:04:17;29.00;76.60
3406;DHT22;10008;48.682;9.016;2022-07-23T13:06:49;29.10;77.40
3406;DHT22;10008;48.682;9.016;2022-07-23T13:09:18;29.50;76.10
3406;DHT22;10008;48.682;9.016;2022-07-23T13:11:46;29.70;75.10
3406;DHT22;10008;48.682;9.016;2022-07-23T13:14:13;29.90;72.00
3406;DHT22;10008;48.682;9.016;2022-07-23T13:16:40;30.20;72.70
3406;DHT22;10008;48.682;9.016;2022-07-23T13:19:06;30.40;71.20
3406;DHT22;10008;48.682;9.016;2022-07-23T13:21:33;30.50;71.90
3406;DHT22;10008;48.682;9.016;2022-07-23T13:23:58;30.30;70.40
3406;DHT22;10008;48.682;9.016;2022-07-23T13:26:25;30.10;70.70
3406;DHT22;10008;48.682;9.016;2022-07-23T13:28:51;30.00;69.80
3406;DHT22;10008;48.682;9.016;2022-07-23T13:31:17;29.60;70.70
3406;DHT22;10008;48.682;9.016;2022-07-23T13:33:43;29.50;72.40
3406;DHT22;10008;48.682;9.016;2022-07-23T13:36:09;29.40;73.00
3406;DHT22;10008;48.682;9.016;2022-07-23T13:38:34;29.10;73.00
3406;DHT22;10008;48.682;9.016;2022-07-23T13:41:00;29.10;74.20
3406;DHT22;10008;48.682;9.016;2022-07-23T13:43:28;29.10;73.30
3406;DHT22;10008;48.682;9.016;2022-07-23T13:45:55;28.80;73.90
3406;DHT22;10008;48.682;9.016;2022-07-23T13:48:21;28.70;76.00
3406;DHT22;10008;48.682;9.016;2022-07-23T13:50:48;28.50;75.80
3406;DHT22;10008;48.682;9.016;2022-07-23T13:53:17;28.30;75.30
3406;DHT22;10008;48.682;9.016;2022-07-23T13:55:44;28.30;77.50
3406;DHT22;10008;48.682;9.016;2022-07-23T13:58:10;28.30;77.90
3406;DHT22;10008;48.682;9.016;2022-07-23T14:00:40;28.30;77.10
3406;DHT22;10008;48.682;9.016;2022-07-23T14:03:06;28.20;76.00
3406;DHT22;10008;48.682;9.016;2022-07-23T14:05:33;28.00;76.50
3406;DHT22;10008;48.682;9.016;2022-07-23T14:07:58;27.40;77.00
3406;DHT22;10008;48.682;9.016;2022-07-23T14:10:25;28.00;76.00
3406;DHT22;10008;48.682;9.016;2022-07-23T14:12:51;27.90;75.20
3406;DHT22;10008;48.682;9.016;2022-07-23T14:15:18;28.00;76.00
3406;DHT22;10008;48.682;9.016;2022-07-23T14:17:45;28.10;76.20
3406;DHT22;10008;48.682;9.016;2022-07-23T14:20:13;28.20;76.00
3406;DHT22;10008;48.682;9.016;2022-07-23T14:22:39;28.10;76.10
3406;DHT22;10008;48.682;9.016;2022-07-23T14:25:06;28.00;76.00
3406;DHT22;10008;48.682;9.016;2022-07-23T14:27:33;28.00;76.00
3406;DHT22;10008;48.682;9.016;2022-07-23T14:29:59;28.20;76.10
3406;DHT22;10008;48.682;9.016;2022-07-23T14:32:25;28.30;77.30
3406;DHT22;10008;48.682;9.016;2022-07-23T14:34:51;28.40;78.70
3406;DHT22;10008;48.682;9.016;2022-07-23T14:37:17;28.40;75.60
3406;DHT22;10008;48.682;9.016;2022-07-23T14:39:44;28.40;75.20
3406;DHT22;10008;48.682;9.016;2022-07-23T14:42:11;28.30;75.50
3406;DHT22;10008;48.682;9.016;2022-07-23T14:44:37;28.20;74.20
3406;DHT22;10008;48.682;9.016;2022-07-23T14:47:04;28.20;76.90
3406;DHT22;10008;48.682;9.016;2022-07-23T14:49:33;28.20;76.80
3406;DHT22;10008;48.682;9.016;2022-07-23T14:51:59;28.10;76.00
3406;DHT22;10008;48.682;9.016;2022-07-23T14:54:26;28.00;78.60
3406;DHT22;10008;48.682;9.016;2022-07-23T14:56:56;28.00;76.70
3406;DHT22;10008;48.682;9.016;2022-07-23T14:59:22;28.00;76.10
3406;DHT22;10008;48.682;9.016;2022-07-23T15:01:48;28.10;76.70
3406;DHT22;10008;48.682;9.016;2022-07-23T15:04:14;28.10;75.40
3406;DHT22;10008;48.682;9.016;2022-07-23T15:06:41;28.00;74.00
3406;DHT22;10008;48.682;9.016;2022-07-23T15:09:06;28.10;73.60
3406;DHT22;10008;48.682;9.016;2022-07-23T15:11:32;28.20;73.20
3406;DHT22;10008;48.682;9.016;2022-07-23T15:14:06;28.30;73.30
3406;DHT22;10008;48.682;9.016;2022-07-23T15:16:32;28.40;75.00
3406;DHT22;10008;48.682;9.016;2022-07-23T15:18:58;28.40;74.40
3406;DHT22;10008;48.682;9.016;2022-07-23T15:21:25;28.50;72.90
3406;DHT22;10008;48.682;9.016;2022-07-23T15:23:51;28.50;74.40
3406;DHT22;10008;48.682;9.016;2022-07-23T15:26:18;28.40;71.00
3406;DHT22;10008;48.682;9.016;2022-07-23T15:28:44;28.40;73.20
3406;DHT22;10008;48.682;9.016;2022-07-23T15:31:10;28.30;71.80
3406;DHT22;10008;48.682;9.016;2022-07-23T15:33:36;28.10;75.30
3406;DHT22;10008;48.682;9.016;2022-07-23T15:36:03;28.20;73.70
3406;DHT22;10008;48.682;9.016;2022-07-23T15:38:29;28.20;73.40
3406;DHT22;10008;48.682;9.016;2022-07-23T15:40:56;28.00;73.00
3406;DHT22;10008;48.682;9.016;2022-07-23T15:43:22;28.00;73.50
3406;DHT22;10008;48.682;9.016;2022-07-23T15:45:49;28.00;73.30
3406;DHT22;10008;48.682;9.016;2022-07-23T15:48:15;28.00;73.70
3406;DHT22;10008;48.682;9.016;2022-07-23T15:50:41;27.90;73.70
3406;DHT22;10008;48.682;9.016;2022-07-23T15:53:07;27.80;73.50
3406;DHT22;10008;48.682;9.016;2022-07-23T15:55:33;27.90;75.00
3406;DHT22;10008;48.682;9.016;2022-07-23T15:57:59;28.00;74.60
3406;DHT22;10008;48.682;9.016;2022-07-23T16:00:25;28.20;76.00
3406;DHT22;10008;48.682;9.016;2022-07-23T16:02:51;28.30;74.50
3406;DHT22;10008;48.682;9.016;2022-07-23T16:05:16;28.40;76.00
3406;DHT22;10008;48.682;9.016;2022-07-23T16:07:42;28.30;73.80
3406;DHT22;10008;48.682;9.016;2022-07-23T16:10:08;28.30;76.10
3406;DHT22;10008;48.682;9.016;2022-07-23T16:12:36;28.20;72.90
3406;DHT22;10008;48.682;9.016;2022-07-23T16:15:02;28.20;75.80
3406;DHT22;10008;48.682;9.016;2022-07-23T16:17:29;28.20;75.20
3406;DHT22;10008;48.682;9.016;2022-07-23T16:19:54;28.00;74.10
3406;DHT22;10008;48.682;9.016;2022-07-23T16:22:20;27.90;75.80
3406;DHT22;10008;48.682;9.016;2022-07-23T16:24:46;27.90;75.20
3406;DHT22;10008;48.682;9.016;2022-07-23T16:27:12;27.80;75.40
3406;DHT22;10008;48.682;9.016;2022-07-23T16:29:37;27.80;76.00
3406;DHT22;10008;48.682;9.016;2022-07-23T16:32:03;27.70;76.90
3406;DHT22;10008;48.682;9.016;2022-07-23T16:34:29;27.60;77.30
3406;DHT22;10008;48.682;9.016;2022-07-23T16:36:55;27.50;77.80
3406;DHT22;10008;48.682;9.016;2022-07-23T16:39:21;27.60;77.30
3406;DHT22;10008;48.682;9.016;2022-07-23T16:41:47;27.50;77.10